createdAt,value
2018-06-19T00:00:30.041Z,16.60
2018-06-19T00:02:58.329Z,16.60
2018-06-19T00:05:29.751Z,16.50
2018-06-19T00:07:58.939Z,16.50
2018-06-19T00:10:27.170Z,16.60
2018-06-19T00:12:55.805Z,16.50
2018-06-19T00:15:24.395Z,16.40
2018-06-19T00:17:57.018Z,16.50
2018-06-19T00:20:25.243Z,16.40
2018-06-19T00:22:53.445Z,16.50
2018-06-19T00:25:21.655Z,16.30
2018-06-19T00:27:49.846Z,16.20
2018-06-19T00:30:18.070Z,16.10
2018-06-19T00:32:46.270Z,16.00
2018-06-19T00:35:14.476Z,16.00
2018-06-19T00:37:42.671Z,16.00
2018-06-19T00:40:10.867Z,15.90
2018-06-19T00:42:39.072Z,15.80
2018-06-19T00:45:07.312Z,15.80
2018-06-19T00:47:35.511Z,15.80
2018-06-19T00:50:03.727Z,15.90
2018-06-19T00:52:31.970Z,15.90
2018-06-19T00:55:00.163Z,15.90
2018-06-19T00:57:28.358Z,16.00
2018-06-19T00:59:56.560Z,16.10
2018-06-19T01:02:24.759Z,16.10
2018-06-19T01:04:52.935Z,16.00
2018-06-19T01:07:21.143Z,16.00
2018-06-19T01:09:49.342Z,15.90
2018-06-19T01:12:17.539Z,15.90
2018-06-19T01:14:45.726Z,15.80
2018-06-19T01:17:13.945Z,15.80
2018-06-19T01:19:42.137Z,15.80
2018-06-19T01:22:10.339Z,15.90
2018-06-19T01:24:38.530Z,16.00
2018-06-19T01:27:06.736Z,16.00
2018-06-19T01:29:34.950Z,16.10
2018-06-19T01:32:03.147Z,16.20
2018-06-19T01:34:31.354Z,16.20
2018-06-19T01:36:59.566Z,16.20
2018-06-19T01:39:27.767Z,16.10
2018-06-19T01:41:55.962Z,16.20
2018-06-19T01:44:24.167Z,16.20
2018-06-19T01:46:52.386Z,16.10
2018-06-19T01:49:20.587Z,16.00
2018-06-19T01:51:48.775Z,16.10
2018-06-19T01:54:16.972Z,16.10
2018-06-19T01:56:45.164Z,16.10
2018-06-19T01:59:13.360Z,16.00
2018-06-19T02:01:41.557Z,15.90
2018-06-19T02:04:09.751Z,15.80
2018-06-19T02:06:37.938Z,15.70
2018-06-19T02:09:07.779Z,15.70
2018-06-19T02:11:35.972Z,15.60
2018-06-19T02:14:04.172Z,15.60
2018-06-19T02:16:32.364Z,15.60
2018-06-19T02:19:00.567Z,15.50
2018-06-19T02:21:28.770Z,15.50
2018-06-19T02:23:56.972Z,15.50
2018-06-19T02:26:25.160Z,15.50
2018-06-19T02:28:53.429Z,15.60
2018-06-19T02:31:21.627Z,15.80
2018-06-19T02:33:49.826Z,15.60
2018-06-19T02:36:18.024Z,15.60
2018-06-19T02:38:46.244Z,15.60
2018-06-19T02:41:14.478Z,15.70
2018-06-19T02:43:42.674Z,15.70
2018-06-19T02:46:10.875Z,15.80
2018-06-19T02:48:39.075Z,15.80
2018-06-19T02:51:07.271Z,15.80
2018-06-19T02:53:35.475Z,15.80
2018-06-19T02:56:03.669Z,15.70
2018-06-19T02:58:31.855Z,15.70
2018-06-19T03:01:00.071Z,15.70
2018-06-19T03:03:28.256Z,15.60
2018-06-19T03:05:56.456Z,15.50
2018-06-19T03:08:24.643Z,15.40
2018-06-19T03:10:52.839Z,15.40
2018-06-19T03:13:21.031Z,15.30
2018-06-19T03:15:49.231Z,15.20
2018-06-19T03:18:17.489Z,15.20
2018-06-19T03:20:45.684Z,15.20
2018-06-19T03:23:13.875Z,15.10
2018-06-19T03:25:42.079Z,15.20
2018-06-19T03:28:10.263Z,15.30
2018-06-19T03:30:38.459Z,15.30
2018-06-19T03:33:06.654Z,15.30
2018-06-19T03:35:34.889Z,15.30
2018-06-19T03:38:03.058Z,15.40
2018-06-19T03:40:31.262Z,15.50
2018-06-19T03:42:59.450Z,15.30
2018-06-19T03:45:27.654Z,15.30
2018-06-19T03:47:55.848Z,15.30
2018-06-19T03:50:24.052Z,15.40
2018-06-19T03:52:52.235Z,15.30
2018-06-19T03:55:20.438Z,15.30
2018-06-19T03:57:48.632Z,15.40
2018-06-19T04:00:16.840Z,15.40
2018-06-19T04:05:13.020Z,15.40
2018-06-19T04:07:41.216Z,15.50
2018-06-19T04:10:09.424Z,15.40
2018-06-19T04:12:37.636Z,15.50
2018-06-19T04:15:05.851Z,15.50
2018-06-19T04:17:34.067Z,15.50
2018-06-19T04:20:02.271Z,15.50
2018-06-19T04:22:30.481Z,15.60
2018-06-19T04:24:59.300Z,15.70
2018-06-19T04:27:28.199Z,15.70
2018-06-19T04:29:56.471Z,15.70
2018-06-19T04:32:26.316Z,15.80
2018-06-19T04:34:54.626Z,15.90
2018-06-19T04:37:22.873Z,15.80
2018-06-19T04:39:51.081Z,15.90
2018-06-19T04:42:24.744Z,15.90
2018-06-19T04:44:54.300Z,16.00
2018-06-19T04:47:23.468Z,16.00
2018-06-19T04:49:57.933Z,16.20
2018-06-19T04:52:26.349Z,16.20
2018-06-19T04:54:54.605Z,16.20
2018-06-19T04:57:22.959Z,16.30
2018-06-19T04:59:51.172Z,16.40
2018-06-19T05:02:19.406Z,16.40
2018-06-19T05:04:47.616Z,16.50
2018-06-19T05:07:17.044Z,16.50
2018-06-19T05:09:45.263Z,16.50
2018-06-19T05:12:13.483Z,16.60
2018-06-19T05:14:41.804Z,16.60
2018-06-19T05:17:10.163Z,16.60
2018-06-19T05:19:38.452Z,16.60
2018-06-19T05:22:06.789Z,16.70
2018-06-19T05:24:35.073Z,16.80
2018-06-19T05:27:03.515Z,16.80
2018-06-19T05:29:32.653Z,16.80
2018-06-19T05:32:01.000Z,16.80
2018-06-19T05:34:29.361Z,17.00
2018-06-19T05:36:57.821Z,17.00
2018-06-19T05:39:26.273Z,17.10
2018-06-19T05:41:54.692Z,17.20
2018-06-19T05:44:23.064Z,17.20
2018-06-19T05:46:51.353Z,17.30
2018-06-19T05:49:19.727Z,17.40
2018-06-19T05:51:48.056Z,17.40
2018-06-19T05:54:16.427Z,17.50
2018-06-19T05:56:44.707Z,17.60
2018-06-19T05:59:13.065Z,17.60
2018-06-19T06:01:41.397Z,17.70
2018-06-19T06:04:09.719Z,17.90
2018-06-19T06:06:38.047Z,17.90
2018-06-19T06:09:08.382Z,18.00
2018-06-19T06:11:36.724Z,18.10
2018-06-19T06:14:05.124Z,18.20
2018-06-19T06:16:33.486Z,18.30
2018-06-19T06:19:01.797Z,18.40
2018-06-19T06:21:30.140Z,18.40
2018-06-19T06:23:58.465Z,18.50
2018-06-19T06:26:26.788Z,18.60
2018-06-19T06:28:55.120Z,18.60
2018-06-19T06:31:23.479Z,18.60
2018-06-19T06:33:52.016Z,18.70
2018-06-19T06:36:20.330Z,18.80
2018-06-19T06:38:48.720Z,18.80
2018-06-19T06:41:17.060Z,18.90
2018-06-19T06:43:45.383Z,19.00
2018-06-19T06:46:13.708Z,19.10
2018-06-19T06:48:42.095Z,19.10
2018-06-19T06:51:10.408Z,19.20
2018-06-19T06:53:38.765Z,19.20
2018-06-19T06:56:07.130Z,19.30
2018-06-19T06:58:35.448Z,19.30
2018-06-19T07:01:03.783Z,19.30
2018-06-19T07:03:32.145Z,19.40
2018-06-19T07:06:00.521Z,19.50
2018-06-19T07:08:28.876Z,19.70
2018-06-19T07:10:57.248Z,19.90
2018-06-19T07:13:25.611Z,20.10
2018-06-19T07:15:53.988Z,20.30
2018-06-19T07:18:22.284Z,20.60
2018-06-19T07:20:50.646Z,21.00
2018-06-19T07:23:19.000Z,21.50
2018-06-19T07:25:47.346Z,22.10
2018-06-19T07:28:15.716Z,22.40
2018-06-19T07:30:44.179Z,22.30
2018-06-19T07:33:12.553Z,22.40
2018-06-19T07:35:40.903Z,22.50
2018-06-19T07:38:09.395Z,22.70
2018-06-19T07:40:37.718Z,22.90
2018-06-19T07:43:06.074Z,23.00
2018-06-19T07:45:34.888Z,23.10
2018-06-19T07:48:03.251Z,23.30
2018-06-19T07:50:32.031Z,23.40
2018-06-19T07:53:00.388Z,23.60
2018-06-19T07:55:28.767Z,23.90
2018-06-19T07:57:57.145Z,24.20
2018-06-19T08:00:25.544Z,24.60
2018-06-19T08:02:53.904Z,25.10
2018-06-19T08:05:22.305Z,25.60
2018-06-19T08:07:50.646Z,26.00
2018-06-19T08:10:19.037Z,26.60
2018-06-19T08:12:48.069Z,27.00
2018-06-19T08:15:16.661Z,27.50
2018-06-19T08:17:45.095Z,27.60
2018-06-19T08:20:13.435Z,27.20
2018-06-19T08:22:41.998Z,27.20
2018-06-19T08:25:10.334Z,27.50
2018-06-19T08:27:38.718Z,27.90
2018-06-19T08:30:07.132Z,28.20
2018-06-19T08:35:03.630Z,28.70
2018-06-19T08:37:31.989Z,28.90
2018-06-19T08:40:00.394Z,29.20
2018-06-19T08:42:28.792Z,29.30
2018-06-19T08:44:57.144Z,29.30
2018-06-19T08:47:25.493Z,29.50
2018-06-19T08:49:53.812Z,29.70
2018-06-19T08:52:22.233Z,29.70
2018-06-19T08:54:50.634Z,29.80
2018-06-19T08:57:19.055Z,29.80
2018-06-19T08:59:47.403Z,30.00
2018-06-19T09:02:15.788Z,30.10
2018-06-19T09:04:44.152Z,30.20
2018-06-19T09:07:12.536Z,30.00
2018-06-19T09:09:41.021Z,29.90
2018-06-19T09:12:09.395Z,30.00
2018-06-19T09:14:37.848Z,30.10
2018-06-19T09:17:06.263Z,30.10
2018-06-19T09:19:34.700Z,30.10
2018-06-19T09:22:03.142Z,30.10
2018-06-19T09:24:31.559Z,30.10
2018-06-19T09:27:00.005Z,30.20
2018-06-19T09:29:28.449Z,30.20
2018-06-19T09:31:56.891Z,29.90
2018-06-19T09:34:25.412Z,30.10
2018-06-19T09:36:53.946Z,30.10
2018-06-19T09:39:22.404Z,30.10
2018-06-19T09:41:50.932Z,30.40
2018-06-19T09:44:19.356Z,30.30
2018-06-19T09:46:47.837Z,30.20
2018-06-19T09:49:16.280Z,30.50
2018-06-19T09:51:44.896Z,30.60
2018-06-19T09:54:13.312Z,30.50
2018-06-19T09:56:41.846Z,30.50
2018-06-19T09:59:10.243Z,30.70
2018-06-19T10:01:38.712Z,30.70
2018-06-19T10:04:07.278Z,30.60
2018-06-19T10:06:35.758Z,30.40
2018-06-19T10:09:06.366Z,30.20
2018-06-19T10:11:34.735Z,30.20
2018-06-19T10:14:03.328Z,30.10
2018-06-19T10:16:31.797Z,30.10
2018-06-19T10:19:00.230Z,29.90
2018-06-19T10:21:28.649Z,30.00
2018-06-19T10:23:57.132Z,30.10
2018-06-19T10:26:25.538Z,30.50
2018-06-19T10:28:53.926Z,30.70
2018-06-19T10:31:22.384Z,31.10
2018-06-19T10:33:50.811Z,31.30
2018-06-19T10:36:19.260Z,31.40
2018-06-19T10:38:47.800Z,31.10
2018-06-19T10:41:16.243Z,31.10
2018-06-19T10:43:44.729Z,31.30
2018-06-19T10:46:13.145Z,31.00
2018-06-19T10:48:41.637Z,31.20
2018-06-19T10:51:10.132Z,31.30
2018-06-19T10:53:38.597Z,31.60
2018-06-19T10:56:07.150Z,31.60
2018-06-19T10:58:35.677Z,31.90
2018-06-19T11:01:04.184Z,31.80
2018-06-19T11:03:32.651Z,31.90
2018-06-19T11:06:01.107Z,32.10
2018-06-19T11:08:30.284Z,32.00
2018-06-19T11:10:58.736Z,31.90
2018-06-19T11:13:27.324Z,31.80
2018-06-19T11:15:55.622Z,31.50
2018-06-19T11:18:23.928Z,31.40
2018-06-19T11:20:52.780Z,31.10
2018-06-19T11:23:21.008Z,30.90
2018-06-19T11:25:50.002Z,30.80
2018-06-19T11:28:18.352Z,30.60
2018-06-19T11:30:46.610Z,30.40
2018-06-19T11:33:14.839Z,30.40
2018-06-19T11:35:43.051Z,30.20
2018-06-19T11:40:39.397Z,30.40
2018-06-19T11:43:07.610Z,30.30
2018-06-19T11:45:35.929Z,30.20
2018-06-19T11:48:04.400Z,30.10
2018-06-19T11:50:32.711Z,30.10
2018-06-19T11:53:00.907Z,30.00
2018-06-19T11:55:29.903Z,29.80
2018-06-19T11:57:58.187Z,29.50
2018-06-19T12:00:26.571Z,29.30
2018-06-19T12:02:55.259Z,29.50
2018-06-19T12:05:23.530Z,29.40
2018-06-19T12:07:51.810Z,29.20
2018-06-19T12:10:20.101Z,29.10
2018-06-19T12:12:49.911Z,29.20
2018-06-19T12:15:18.587Z,29.20
2018-06-19T12:17:46.838Z,29.20
2018-06-19T12:20:15.066Z,29.00
2018-06-19T12:22:43.295Z,28.90
2018-06-19T12:25:11.536Z,28.50
2018-06-19T12:27:39.806Z,28.30
2018-06-19T12:30:08.011Z,28.20
2018-06-19T12:32:36.265Z,28.30
2018-06-19T12:35:04.499Z,28.30
2018-06-19T12:37:32.718Z,28.30
2018-06-19T12:40:00.929Z,28.10
2018-06-19T12:42:29.184Z,28.10
2018-06-19T12:44:57.392Z,28.10
2018-06-19T12:47:25.615Z,28.10
2018-06-19T12:50:39.958Z,28.20
2018-06-19T12:53:20.242Z,28.10
2018-06-19T12:58:26.306Z,28.00
2018-06-19T13:00:54.754Z,27.70
2018-06-19T13:03:35.620Z,27.60
2018-06-19T13:06:15.290Z,27.40
2018-06-19T13:08:53.709Z,27.40
2018-06-19T13:11:22.025Z,27.50
2018-06-19T13:14:33.316Z,27.60
2018-06-19T13:18:11.506Z,27.50
2018-06-19T13:20:46.132Z,27.40
2018-06-19T13:23:15.222Z,27.50
2018-06-19T13:25:43.508Z,27.40
2018-06-19T13:28:11.883Z,27.50
2018-06-19T13:30:51.527Z,27.50
2018-06-19T13:33:19.743Z,27.50
2018-06-19T13:35:47.947Z,27.50
2018-06-19T13:38:16.182Z,27.50
2018-06-19T13:41:06.787Z,27.50
2018-06-19T13:43:47.473Z,27.40
2018-06-19T13:46:15.680Z,27.40
2018-06-19T13:48:44.076Z,27.40
2018-06-19T13:51:12.753Z,27.30
2018-06-19T13:53:41.762Z,27.30
2018-06-19T13:57:31.410Z,27.20
2018-06-19T14:00:00.973Z,27.30
2018-06-19T14:02:29.286Z,27.20
2018-06-19T14:04:57.718Z,27.20
2018-06-19T14:07:26.756Z,27.20
2018-06-19T14:10:07.486Z,27.30
2018-06-19T14:12:59.119Z,27.30
2018-06-19T14:15:28.500Z,27.30
2018-06-19T14:17:57.058Z,27.20
2018-06-19T14:20:25.310Z,27.20
2018-06-19T14:22:53.717Z,27.20
2018-06-19T14:25:24.448Z,27.20
2018-06-19T14:27:52.711Z,27.20
2018-06-19T14:30:20.962Z,27.20
2018-06-19T14:32:49.392Z,27.20
2018-06-19T14:35:17.974Z,27.20
2018-06-19T14:37:46.683Z,27.20
2018-06-19T14:40:15.351Z,27.20
2018-06-19T14:42:43.572Z,27.20
2018-06-19T14:45:12.219Z,27.20
2018-06-19T14:47:40.699Z,27.30
2018-06-19T14:50:08.907Z,27.20
2018-06-19T14:52:37.247Z,27.20
2018-06-19T14:55:06.075Z,27.20
2018-06-19T14:57:34.327Z,27.30
2018-06-19T15:00:02.635Z,27.20
2018-06-19T15:02:30.938Z,27.20
2018-06-19T15:04:59.155Z,27.20
2018-06-19T15:09:59.705Z,27.10
2018-06-19T15:12:27.947Z,27.10
2018-06-19T15:14:56.185Z,27.10
2018-06-19T15:17:24.421Z,27.10
2018-06-19T15:19:52.624Z,27.10
2018-06-19T15:22:20.867Z,27.10
2018-06-19T15:24:49.099Z,27.10
2018-06-19T15:27:17.298Z,27.10
2018-06-19T15:29:45.897Z,27.10
2018-06-19T15:32:14.106Z,27.00
2018-06-19T15:34:42.806Z,27.00
2018-06-19T15:37:11.140Z,27.10
2018-06-19T15:39:39.495Z,27.00
2018-06-19T15:42:07.868Z,27.00
2018-06-19T15:44:36.238Z,27.00
2018-06-19T15:47:04.489Z,27.00
2018-06-19T15:49:32.690Z,27.00
2018-06-19T15:52:01.065Z,27.10
2018-06-19T15:54:29.263Z,27.10
2018-06-19T15:56:57.488Z,27.00
2018-06-19T15:59:25.747Z,27.00
2018-06-19T16:01:54.125Z,27.00
2018-06-19T16:04:22.329Z,26.90
2018-06-19T16:06:50.661Z,26.90
2018-06-19T16:09:18.963Z,26.80
2018-06-19T16:11:47.542Z,26.80
2018-06-19T16:14:16.067Z,26.80
2018-06-19T16:16:44.487Z,26.80
2018-06-19T16:19:12.783Z,26.80
2018-06-19T16:21:41.098Z,26.80
2018-06-19T16:24:09.402Z,26.80
2018-06-19T16:26:37.837Z,26.80
2018-06-19T16:29:06.147Z,26.80
2018-06-19T16:31:34.556Z,26.80
2018-06-19T16:34:02.844Z,26.70
2018-06-19T16:36:31.247Z,26.80
2018-06-19T16:38:59.659Z,26.80
2018-06-19T16:41:28.907Z,26.80
2018-06-19T16:43:57.258Z,26.80
2018-06-19T16:46:25.601Z,26.80
2018-06-19T16:48:54.043Z,26.80
2018-06-19T16:51:22.613Z,26.70
2018-06-19T16:53:51.024Z,26.70
2018-06-19T16:56:19.324Z,26.60
2018-06-19T16:58:47.865Z,26.60
2018-06-19T17:01:16.342Z,26.60
2018-06-19T17:03:46.903Z,26.60
2018-06-19T17:06:15.232Z,26.50
2018-06-19T17:08:43.771Z,26.50
2018-06-19T17:11:12.468Z,26.50
2018-06-19T17:13:41.067Z,26.50
2018-06-19T17:16:16.381Z,26.50
2018-06-19T17:18:45.206Z,26.80
2018-06-19T17:21:13.952Z,27.00
2018-06-19T17:23:42.504Z,27.00
2018-06-19T17:26:10.994Z,27.00
2018-06-19T17:28:47.322Z,26.90
2018-06-19T17:31:15.666Z,26.80
2018-06-19T17:33:43.931Z,26.60
2018-06-19T17:36:13.248Z,26.50
2018-06-19T17:38:41.918Z,26.40
2018-06-19T17:41:10.438Z,26.40
2018-06-19T17:43:38.949Z,26.40
2018-06-19T17:46:07.393Z,26.40
2018-06-19T17:48:35.718Z,26.30
2018-06-19T17:51:03.979Z,26.30
2018-06-19T17:56:00.223Z,26.20
2018-06-19T17:58:28.447Z,26.20
2018-06-19T18:00:56.679Z,26.10
2018-06-19T18:05:52.967Z,26.00
2018-06-19T18:08:21.940Z,26.00
2018-06-19T18:10:50.297Z,25.90
2018-06-19T18:13:18.693Z,25.80
2018-06-19T18:15:47.000Z,25.80
2018-06-19T18:18:15.286Z,25.80
2018-06-19T18:20:43.607Z,25.70
2018-06-19T18:23:11.848Z,25.70
2018-06-19T18:25:40.070Z,25.60
2018-06-19T18:28:08.470Z,25.50
2018-06-19T18:30:36.664Z,25.40
2018-06-19T18:33:04.868Z,25.40
2018-06-19T18:35:33.088Z,25.30
2018-06-19T18:38:01.286Z,25.20
2018-06-19T18:40:29.563Z,25.20
2018-06-19T18:42:57.760Z,25.20
2018-06-19T18:45:26.063Z,25.10
2018-06-19T18:47:54.388Z,25.10
2018-06-19T18:50:22.592Z,25.00
2018-06-19T18:52:50.818Z,25.00
2018-06-19T18:55:19.109Z,24.90
2018-06-19T18:57:47.334Z,24.90
2018-06-19T19:00:15.595Z,24.80
2018-06-19T19:02:43.807Z,24.80
2018-06-19T19:05:12.022Z,24.70
2018-06-19T19:07:40.263Z,24.70
2018-06-19T19:10:13.921Z,24.60
2018-06-19T19:12:42.198Z,24.60
2018-06-19T19:15:15.879Z,24.50
2018-06-19T19:17:49.654Z,24.50
2018-06-19T19:20:17.893Z,24.40
2018-06-19T19:22:46.387Z,24.40
2018-06-19T19:25:14.996Z,24.30
2018-06-19T19:27:48.593Z,24.30
2018-06-19T19:30:16.830Z,24.20
2018-06-19T19:32:45.047Z,24.20
2018-06-19T19:35:13.283Z,24.00
2018-06-19T19:37:46.840Z,24.00
2018-06-19T19:40:21.824Z,24.00
2018-06-19T19:42:50.057Z,23.90
2018-06-19T19:45:18.313Z,23.80
2018-06-19T19:47:51.946Z,23.80
2018-06-19T19:50:20.129Z,23.70
2018-06-19T19:52:48.355Z,23.60
2018-06-19T19:55:17.118Z,23.50
2018-06-19T19:57:50.952Z,23.40
2018-06-19T20:00:24.576Z,23.30
2018-06-19T20:02:53.195Z,23.20
2018-06-19T20:05:21.594Z,23.20
2018-06-19T20:07:50.022Z,23.00
2018-06-19T20:10:18.482Z,22.90
2018-06-19T20:12:46.907Z,22.90
2018-06-19T20:15:15.298Z,22.80
2018-06-19T20:17:43.742Z,22.70
2018-06-19T20:20:12.192Z,22.60
2018-06-19T20:22:41.067Z,22.60
2018-06-19T20:25:10.175Z,22.40
2018-06-19T20:27:38.688Z,22.30
2018-06-19T20:30:08.074Z,22.30
2018-06-19T20:32:36.542Z,22.20
2018-06-19T20:35:04.969Z,22.10
2018-06-19T20:37:33.320Z,21.90
2018-06-19T20:40:01.664Z,21.90
2018-06-19T20:42:30.087Z,21.80
2018-06-19T20:44:58.812Z,21.80
2018-06-19T20:47:27.256Z,21.60
2018-06-19T20:49:55.717Z,21.60
2018-06-19T20:54:52.221Z,21.50
2018-06-19T20:57:20.572Z,21.50
2018-06-19T20:59:49.412Z,21.40
2018-06-19T21:02:17.756Z,21.50
2018-06-19T21:04:46.129Z,21.40
2018-06-19T21:07:14.512Z,21.30
2018-06-19T21:09:42.860Z,21.20
2018-06-19T21:12:11.191Z,21.10
2018-06-19T21:14:39.537Z,21.00
2018-06-19T21:17:07.891Z,21.10
2018-06-19T21:19:36.216Z,21.00
2018-06-19T21:22:04.576Z,20.90
2018-06-19T21:24:33.002Z,20.80
2018-06-19T21:27:01.294Z,20.70
2018-06-19T21:29:29.625Z,20.60
2018-06-19T21:31:57.959Z,20.50
2018-06-19T21:34:26.272Z,20.40
2018-06-19T21:36:54.580Z,20.40
2018-06-19T21:39:22.858Z,20.50
2018-06-19T21:41:51.216Z,20.30
2018-06-19T21:44:19.647Z,20.20
2018-06-19T21:46:47.951Z,20.00
2018-06-19T21:49:16.254Z,19.90
2018-06-19T21:51:44.628Z,19.90
2018-06-19T21:54:12.960Z,20.00
2018-06-19T21:56:41.265Z,20.00
2018-06-19T21:59:09.663Z,19.90
2018-06-19T22:01:37.968Z,19.90
2018-06-19T22:04:06.241Z,19.90
2018-06-19T22:06:34.549Z,19.90
2018-06-19T22:09:03.114Z,20.00
2018-06-19T22:13:59.510Z,20.00
2018-06-19T22:16:27.823Z,19.90
2018-06-19T22:18:56.174Z,19.80
2018-06-19T22:21:24.471Z,19.70
2018-06-19T22:23:52.892Z,19.60
2018-06-19T22:26:21.279Z,19.50
2018-06-19T22:28:49.673Z,19.40
2018-06-19T22:31:18.027Z,19.50
2018-06-19T22:33:46.384Z,19.30
2018-06-19T22:36:14.744Z,19.30
2018-06-19T22:38:43.088Z,19.20
2018-06-19T22:41:11.395Z,19.20
2018-06-19T22:43:39.749Z,19.10
2018-06-19T22:46:08.073Z,19.10
2018-06-19T22:48:36.498Z,19.00
2018-06-19T22:51:04.873Z,19.10
2018-06-19T22:53:33.211Z,19.00
2018-06-19T22:56:01.586Z,18.90
2018-06-19T22:58:29.872Z,18.80
2018-06-19T23:00:58.210Z,18.80
2018-06-19T23:03:26.504Z,18.70
2018-06-19T23:05:54.795Z,18.70
2018-06-19T23:08:23.164Z,18.60
2018-06-19T23:10:51.522Z,18.50
2018-06-19T23:13:19.803Z,18.50
2018-06-19T23:15:48.099Z,18.40
2018-06-19T23:18:16.405Z,18.40
2018-06-19T23:23:12.775Z,18.30
2018-06-19T23:25:41.097Z,18.30
2018-06-19T23:28:09.460Z,18.30
2018-06-19T23:30:37.825Z,18.40
2018-06-19T23:33:06.288Z,18.50
2018-06-19T23:35:34.692Z,18.40
2018-06-19T23:38:03.073Z,18.40
2018-06-19T23:40:31.441Z,18.40
2018-06-19T23:42:59.921Z,18.30
2018-06-19T23:45:28.327Z,18.30
2018-06-19T23:47:56.753Z,18.30
2018-06-19T23:50:25.196Z,18.20
2018-06-19T23:52:53.600Z,18.10
2018-06-19T23:55:22.068Z,18.20
2018-06-19T23:57:50.437Z,18.20
